Time;durP1;ratioP1;P1;durP2;ratioP2;P2;SDS_P1;SDS_P2;PMS_P1;PMS_P2;Temp;Humidity;BMP_temperature;BMP_pressure;BME280_temperature;BME280_humidity;BME280_pressure;Samples;Min_cycle;Max_cycle;Signal;HPM_P1;HPM_P2
2022/05/17 04:01:04;;;;;;;9.30;8.00;;;15.10;99.90;;;;;;5654894;23;20923;-70
2022/05/17 04:03:31;;;;;;;9.63;8.50;;;15.10;99.90;;;;;;4954699;28;20563;-68
2022/05/17 04:05:58;;;;;;;10.33;7.83;;;15.20;99.90;;;;;;4955202;28;21019;-69
2022/05/17 04:08:25;;;;;;;8.97;8.13;;;15.20;99.90;;;;;;4954903;28;20456;-69
2022/05/17 04:10:52;;;;;;;8.13;7.43;;;15.20;99.90;;;;;;4954233;28;20555;-68
2022/05/17 04:13:18;;;;;;;8.50;7.70;;;15.20;99.90;;;;;;4954000;28;20491;-69
2022/05/17 04:15:45;;;;;;;10.37;8.97;;;15.20;99.90;;;;;;4955586;28;20573;-68
2022/05/17 04:18:13;;;;;;;9.43;8.60;;;15.20;99.90;;;;;;4954662;28;20465;-68
2022/05/17 04:20:40;;;;;;;9.20;8.50;;;15.10;99.90;;;;;;4954269;28;20555;-69
2022/05/17 04:23:07;;;;;;;9.37;8.43;;;15.10;99.90;;;;;;4954337;28;20868;-68
2022/05/17 04:25:33;;;;;;;10.20;9.30;;;15.10;99.90;;;;;;4954538;28;20472;-69
2022/05/17 04:28:00;;;;;;;10.40;9.50;;;15.20;99.90;;;;;;4953992;28;20858;-68
2022/05/17 04:30:27;;;;;;;9.40;8.50;;;15.20;99.90;;;;;;4953359;28;20468;-68
2022/05/17 04:32:54;;;;;;;9.80;8.97;;;15.10;99.90;;;;;;4954195;28;20583;-68
2022/05/17 04:35:22;;;;;;;11.23;9.80;;;15.10;99.90;;;;;;4947367;28;20489;-68
2022/05/17 04:37:48;;;;;;;10.07;8.93;;;15.10;99.90;;;;;;4953806;28;20469;-68
2022/05/17 04:40:15;;;;;;;9.67;8.73;;;15.10;99.90;;;;;;4953515;28;20900;-68
2022/05/17 04:42:44;;;;;;;13.87;9.57;;;15.10;99.90;;;;;;4953646;28;20464;-69
2022/05/17 04:45:13;;;;;;;11.90;9.63;;;15.10;99.90;;;;;;4953728;28;20580;-68
2022/05/17 04:47:41;;;;;;;9.97;9.07;;;15.10;99.90;;;;;;4953732;28;20547;-68
2022/05/17 04:50:09;;;;;;;9.63;8.83;;;15.10;99.90;;;;;;4953148;28;20904;-69
2022/05/17 04:52:37;;;;;;;8.73;8.00;;;15.10;99.90;;;;;;4953834;28;20487;-69
2022/05/17 04:55:05;;;;;;;10.27;9.20;;;15.00;99.90;;;;;;4953632;28;20496;-69
2022/05/17 04:57:32;;;;;;;10.60;9.30;;;14.90;99.90;;;;;;4953495;28;20608;-69
2022/05/17 04:59:59;;;;;;;10.87;9.70;;;14.90;99.90;;;;;;4952871;28;20838;-70
2022/05/17 05:02:26;;;;;;;12.07;9.93;;;14.80;99.90;;;;;;4953364;28;20583;-68
2022/05/17 05:04:53;;;;;;;12.33;9.43;;;14.80;99.90;;;;;;4953644;28;20515;-69
2022/05/17 05:07:19;;;;;;;11.60;10.50;;;14.80;99.90;;;;;;4953867;28;20823;-69
2022/05/17 05:09:47;;;;;;;11.37;10.27;;;14.90;99.90;;;;;;4952857;28;20465;-69
2022/05/17 05:12:14;;;;;;;12.23;10.57;;;15.00;99.90;;;;;;4953026;28;20495;-69
2022/05/17 05:14:41;;;;;;;12.03;10.93;;;15.00;99.90;;;;;;4952937;28;20539;-69
2022/05/17 05:17:09;;;;;;;12.30;11.10;;;15.00;99.90;;;;;;4953330;28;20580;-69
2022/05/17 05:19:36;;;;;;;15.07;12.47;;;15.00;99.90;;;;;;4952736;28;20633;-69
2022/05/17 05:22:03;;;;;;;12.17;10.97;;;15.10;99.90;;;;;;4953286;28;20491;-70
2022/05/17 05:24:31;;;;;;;12.80;11.07;;;15.10;99.90;;;;;;4953171;28;20500;-70
2022/05/17 05:27:00;;;;;;;14.00;12.53;;;15.10;99.90;;;;;;4953457;28;20464;-70
2022/05/17 05:29:27;;;;;;;11.70;10.60;;;15.10;99.90;;;;;;4952929;28;20539;-69
2022/05/17 05:31:53;;;;;;;13.33;12.00;;;15.10;99.90;;;;;;4952636;28;20607;-70
2022/05/17 05:34:21;;;;;;;12.50;11.23;;;15.10;99.90;;;;;;4953149;28;20496;-70
2022/05/17 05:36:48;;;;;;;15.73;11.63;;;15.20;99.90;;;;;;4953422;28;20662;-70
2022/05/17 05:39:15;;;;;;;14.07;11.77;;;15.20;99.90;;;;;;4953243;28;20833;-70
2022/05/17 05:41:42;;;;;;;15.80;11.77;;;15.20;99.90;;;;;;4952454;28;20572;-70
2022/05/17 05:44:10;;;;;;;12.00;10.53;;;15.20;99.90;;;;;;4952095;28;21136;-69
2022/05/17 05:46:37;;;;;;;12.47;11.03;;;15.20;99.90;;;;;;4953007;28;20528;-70
2022/05/17 05:49:03;;;;;;;13.80;12.27;;;15.20;99.90;;;;;;4953122;28;20924;-70
2022/05/17 05:51:30;;;;;;;14.13;12.63;;;15.20;99.90;;;;;;4952460;28;20488;-70
2022/05/17 05:53:57;;;;;;;12.60;11.33;;;15.20;99.90;;;;;;4952681;28;20535;-70
2022/05/17 05:56:23;;;;;;;14.30;11.60;;;15.20;99.90;;;;;;4952951;28;20993;-70
2022/05/17 05:58:50;;;;;;;13.53;11.90;;;15.20;99.90;;;;;;4952017;28;20469;-70
2022/05/17 06:01:18;;;;;;;13.23;11.93;;;15.20;99.90;;;;;;4952458;28;20527;-70
2022/05/17 06:03:45;;;;;;;17.37;13.70;;;15.30;99.90;;;;;;4952838;28;20520;-70
2022/05/17 06:06:12;;;;;;;13.23;11.77;;;15.30;99.90;;;;;;4952504;28;20569;-70
2022/05/17 06:08:39;;;;;;;14.80;13.17;;;15.30;99.90;;;;;;4952907;28;20882;-70
2022/05/17 06:11:06;;;;;;;14.13;12.77;;;15.30;99.90;;;;;;4952707;28;21012;-70
2022/05/17 06:13:34;;;;;;;18.93;14.93;;;15.40;99.90;;;;;;4951161;28;20544;-70
2022/05/17 06:16:00;;;;;;;14.93;13.47;;;15.40;99.90;;;;;;4953075;28;20881;-70
2022/05/17 06:18:29;;;;;;;21.70;14.90;;;15.40;99.90;;;;;;4952863;28;20500;-70
2022/05/17 06:20:56;;;;;;;16.87;13.40;;;15.40;99.90;;;;;;4952478;28;20496;-70
2022/05/17 06:23:25;;;;;;;15.70;14.03;;;15.30;99.90;;;;;;4952664;28;20519;-69
2022/05/17 06:25:51;;;;;;;17.80;14.57;;;15.30;99.90;;;;;;4952753;28;20548;-69
2022/05/17 06:28:18;;;;;;;16.90;13.97;;;15.30;99.90;;;;;;4951960;28;20473;-69
2022/05/17 06:30:45;;;;;;;17.53;13.60;;;15.30;99.90;;;;;;4952345;28;20830;-70
2022/05/17 06:33:13;;;;;;;15.37;13.77;;;15.30;99.90;;;;;;4952341;28;20821;-69
2022/05/17 06:35:42;;;;;;;15.63;13.50;;;15.30;99.90;;;;;;4952457;28;20488;-69
2022/05/17 06:38:10;;;;;;;23.83;15.07;;;15.30;99.90;;;;;;4952390;28;20471;-69
2022/05/17 06:40:37;;;;;;;16.73;14.97;;;15.40;99.90;;;;;;4951667;28;21028;-70
2022/05/17 06:43:04;;;;;;;21.50;15.20;;;15.40;99.90;;;;;;4952305;28;20560;-69
2022/05/17 06:45:31;;;;;;;20.43;17.17;;;15.40;99.90;;;;;;4951927;28;20933;-70
2022/05/17 06:47:58;;;;;;;21.50;16.30;;;15.50;99.90;;;;;;4952405;28;20464;-70
2022/05/17 06:50:24;;;;;;;17.83;16.03;;;15.50;99.90;;;;;;4951866;28;20507;-70
2022/05/17 06:52:52;;;;;;;17.53;15.73;;;15.50;99.90;;;;;;4952053;28;20465;-70
2022/05/17 06:55:21;;;;;;;17.67;14.93;;;15.50;99.90;;;;;;4952137;28;20488;-69
2022/05/17 06:57:48;;;;;;;19.83;17.13;;;15.50;99.90;;;;;;4951867;28;20508;-70
2022/05/17 07:00:17;;;;;;;19.20;16.83;;;15.50;99.90;;;;;;4951332;28;20465;-69
2022/05/17 07:02:43;;;;;;;19.87;16.90;;;15.60;99.90;;;;;;4952476;28;20469;-70
2022/05/17 07:05:11;;;;;;;19.40;16.10;;;15.60;99.90;;;;;;4952003;28;21016;-69
2022/05/17 07:07:38;;;;;;;20.20;17.30;;;15.60;99.90;;;;;;4952018;28;20460;-69
2022/05/17 07:13:12;;;;;;;20.87;16.63;;;15.80;99.90;;;;;;4951839;29;21033;-69
2022/05/17 07:15:41;;;;;;;19.13;17.03;;;15.80;99.90;;;;;;4952315;28;20583;-69
2022/05/17 07:18:09;;;;;;;23.47;17.70;;;15.90;99.90;;;;;;4954382;28;20527;-69
2022/05/17 07:20:36;;;;;;;20.50;17.30;;;15.90;99.90;;;;;;4955258;28;20492;-69
2022/05/17 07:23:03;;;;;;;22.40;18.63;;;16.00;99.90;;;;;;4955682;28;20528;-69
2022/05/17 07:25:32;;;;;;;21.03;17.80;;;16.10;99.90;;;;;;4955620;28;20956;-69
2022/05/17 07:27:59;;;;;;;23.03;19.37;;;16.20;99.90;;;;;;4955152;28;20472;-69
2022/05/17 07:30:27;;;;;;;20.90;18.23;;;16.30;99.90;;;;;;4954455;28;20472;-69
2022/05/17 07:32:53;;;;;;;22.50;17.97;;;16.30;99.90;;;;;;4955271;28;20515;-69
2022/05/17 07:35:20;;;;;;;27.50;19.07;;;16.40;99.90;;;;;;4955261;28;20621;-69
2022/05/17 07:37:47;;;;;;;21.70;18.90;;;16.40;99.90;;;;;;4955502;28;20472;-69
2022/05/17 07:40:14;;;;;;;23.47;19.20;;;16.50;99.90;;;;;;4954518;28;20476;-69
2022/05/17 07:42:42;;;;;;;20.93;18.67;;;16.50;99.90;;;;;;4954774;28;20551;-68
2022/05/17 07:45:11;;;;;;;23.53;19.63;;;16.60;99.90;;;;;;4954755;28;20469;-69
2022/05/17 07:47:38;;;;;;;24.97;21.00;;;16.70;99.90;;;;;;4955322;28;20559;-69
2022/05/17 07:50:06;;;;;;;23.63;20.43;;;16.70;99.90;;;;;;4954365;28;20992;-69
2022/05/17 07:52:32;;;;;;;25.67;19.93;;;16.80;99.90;;;;;;4955112;28;20480;-69
2022/05/17 07:54:59;;;;;;;24.57;19.80;;;16.80;99.90;;;;;;4949379;29;20555;-69
2022/05/17 07:57:26;;;;;;;24.27;20.20;;;16.90;99.90;;;;;;4954628;28;20523;-69
2022/05/17 07:59:54;;;;;;;27.40;20.40;;;16.90;99.90;;;;;;4953831;28;20528;-69
2022/05/17 08:02:21;;;;;;;25.27;20.40;;;17.00;99.90;;;;;;4954814;28;20712;-69
2022/05/17 08:04:49;;;;;;;22.43;20.13;;;17.00;99.90;;;;;;4955124;28;20472;-69
2022/05/17 08:07:15;;;;;;;24.77;20.30;;;17.10;99.90;;;;;;4954803;28;20848;-69
2022/05/17 08:09:42;;;;;;;22.87;19.50;;;17.30;99.90;;;;;;4954650;28;20527;-69
2022/05/17 08:12:10;;;;;;;23.13;20.70;;;17.40;99.90;;;;;;4954163;28;20489;-69
2022/05/17 08:14:39;;;;;;;21.50;18.80;;;17.50;99.90;;;;;;4954181;28;20465;-68
2022/05/17 08:17:07;;;;;;;18.77;16.77;;;17.60;99.90;;;;;;4954536;28;20468;-68
2022/05/17 08:19:35;;;;;;;20.30;17.63;;;17.50;99.90;;;;;;4954072;28;20523;-68
2022/05/17 08:22:03;;;;;;;20.97;17.40;;;17.50;99.90;;;;;;4954530;28;20489;-68
2022/05/17 08:27:31;;;;;;;19.40;17.40;;;17.50;99.90;;;;;;4950892;28;20544;-68
2022/05/17 08:27:32;;;;;;;21.63;19.03;;;17.50;99.90;;;;;;4953889;28;20473;-69
2022/05/17 08:30:00;;;;;;;21.90;17.70;;;17.60;99.90;;;;;;4953128;28;20883;-68
2022/05/17 08:35:13;;;;;;;21.67;17.90;;;17.60;99.90;;;;;;4954455;29;20483;-68
2022/05/17 08:37:39;;;;;;;19.93;17.23;;;17.70;99.90;;;;;;4954738;28;20471;-68
2022/05/17 08:40:07;;;;;;;24.47;19.27;;;17.70;99.90;;;;;;4954605;28;20568;-68
2022/05/17 08:42:44;;;;;;;21.03;18.70;;;17.60;99.90;;;;;;4962210;28;20496;-69
2022/05/17 08:45:17;;;;;;;22.23;18.83;;;17.60;99.90;;;;;;4965568;28;20460;-69
2022/05/17 08:47:51;;;;;;;20.93;18.73;;;17.60;99.90;;;;;;4967506;28;20500;-68
2022/05/17 08:50:23;;;;;;;22.33;19.50;;;17.60;99.90;;;;;;4964674;28;20503;-69
2022/05/17 08:52:49;;;;;;;23.67;20.60;;;17.50;99.90;;;;;;4957109;28;20468;-69
2022/05/17 08:55:22;;;;;;;24.10;21.07;;;17.50;99.90;;;;;;4954971;28;21006;-69
2022/05/17 08:57:53;;;;;;;24.40;19.47;;;17.40;99.90;;;;;;4953975;28;20570;-69
2022/05/17 09:00:23;;;;;;;20.27;18.07;;;17.40;99.90;;;;;;4953541;28;20472;-69
2022/05/17 09:02:54;;;;;;;17.97;16.07;;;17.30;99.90;;;;;;4954365;28;20460;-69
2022/05/17 09:05:36;;;;;;;20.17;16.50;;;17.20;99.90;;;;;;4953570;28;20465;-69
2022/05/17 09:08:14;;;;;;;19.17;16.27;;;17.10;99.90;;;;;;4954052;28;20939;-69
2022/05/17 09:10:46;;;;;;;21.70;16.83;;;17.00;99.90;;;;;;4953480;28;20488;-70
2022/05/17 09:13:17;;;;;;;19.77;15.97;;;16.90;99.90;;;;;;4953290;28;20580;-70
2022/05/17 09:15:45;;;;;;;22.17;16.87;;;16.90;99.90;;;;;;4953776;28;20988;-70
2022/05/17 09:18:16;;;;;;;18.23;16.03;;;16.90;99.90;;;;;;4953716;28;20464;-70
2022/05/17 09:20:43;;;;;;;20.80;16.13;;;16.90;99.90;;;;;;4953067;28;20985;-69
2022/05/17 09:23:11;;;;;;;19.73;16.27;;;17.10;99.90;;;;;;4953694;28;20468;-69
2022/05/17 09:26:03;;;;;;;18.50;16.03;;;17.20;99.90;;;;;;4953602;28;20974;-69
2022/05/17 09:28:45;;;;;;;21.67;16.43;;;17.30;99.90;;;;;;4952426;28;20484;-69
2022/05/17 09:31:15;;;;;;;17.00;15.20;;;17.40;99.90;;;;;;4953092;28;20559;-70
2022/05/17 09:33:44;;;;;;;18.93;15.50;;;17.40;99.90;;;;;;4953073;28;20456;-69
2022/05/17 09:36:18;;;;;;;19.63;17.47;;;17.40;99.90;;;;;;4953431;28;20555;-70
2022/05/17 09:38:46;;;;;;;17.10;15.37;;;17.40;99.90;;;;;;4953092;28;20473;-69
2022/05/17 09:41:19;;;;;;;22.20;18.10;;;17.60;99.90;;;;;;4951943;28;20488;-69
2022/05/17 09:43:52;;;;;;;20.07;17.97;;;17.80;99.90;;;;;;4952872;28;20531;-69
2022/05/17 09:46:29;;;;;;;17.80;15.40;;;17.80;99.90;;;;;;4954977;28;20827;-69
2022/05/17 09:54:42;;;;;;;22.13;17.03;;;18.00;99.90;;;;;;4947599;29;20472;-69
2022/05/17 09:57:18;;;;;;;20.47;16.73;;;18.00;99.90;;;;;;4952690;28;20488;-70
2022/05/17 09:59:47;;;;;;;18.90;16.90;;;18.00;99.90;;;;;;4952453;28;20465;-68
2022/05/17 10:02:40;;;;;;;23.83;18.10;;;18.00;99.90;;;;;;4952958;28;20492;-68
2022/05/17 10:05:45;;;;;;;22.07;18.87;;;18.00;99.90;;;;;;4953895;28;20468;-69
2022/05/17 10:08:31;;;;;;;24.87;18.60;;;18.20;99.90;;;;;;4944412;28;20472;-68
2022/05/17 10:11:12;;;;;;;28.03;19.80;;;18.40;99.90;;;;;;4953929;28;20484;-68
2022/05/17 10:13:51;;;;;;;24.97;19.77;;;18.50;99.90;;;;;;4952610;28;20531;-68
2022/05/17 10:16:26;;;;;;;25.30;19.70;;;18.70;99.90;;;;;;4976366;23;20571;-72
2022/05/17 10:18:58;;;;;;;24.13;19.73;;;18.80;99.90;;;;;;4952759;28;20480;-70
2022/05/17 10:21:34;;;;;;;25.20;20.03;;;18.90;99.90;;;;;;4952419;28;20834;-71
2022/05/17 10:24:12;;;;;;;27.13;20.00;;;18.90;99.90;;;;;;4955447;28;20475;-71
2022/05/17 10:26:43;;;;;;;26.10;21.40;;;18.70;99.90;;;;;;4958958;29;20511;-71
2022/05/17 10:29:25;;;;;;;29.70;21.93;;;18.70;99.90;;;;;;4959759;28;20526;-73
2022/05/17 10:31:59;;;;;;;31.97;22.07;;;18.70;99.90;;;;;;4952793;28;20464;-72
2022/05/17 10:34:43;;;;;;;27.50;22.10;;;18.70;99.90;;;;;;4953168;28;20467;-71
2022/05/17 10:37:15;;;;;;;29.23;21.10;;;18.60;99.90;;;;;;4952859;28;20497;-72
2022/05/17 10:39:50;;;;;;;26.13;22.80;;;18.60;99.90;;;;;;4952642;28;20568;-71
2022/05/17 10:42:17;;;;;;;29.23;23.37;;;18.60;99.90;;;;;;4952292;28;20783;-70
2022/05/17 10:44:47;;;;;;;28.97;22.23;;;18.50;99.90;;;;;;4952739;28;20523;-72
2022/05/17 10:47:21;;;;;;;28.87;20.60;;;18.60;99.90;;;;;;4952893;28;20517;-71
2022/05/17 10:50:11;;;;;;;27.27;20.97;;;18.60;99.90;;;;;;4952076;28;20543;-71
2022/05/17 10:52:51;;;;;;;24.00;19.27;;;18.60;99.90;;;;;;4947000;28;20697;-71
2022/05/17 10:55:25;;;;;;;26.40;20.17;;;18.70;99.90;;;;;;4956659;28;20857;-72
2022/05/17 10:57:58;;;;;;;24.50;18.63;;;18.70;99.90;;;;;;4956169;28;20519;-70
2022/05/17 11:00:31;;;;;;;19.40;17.30;;;18.70;99.90;;;;;;4956509;28;20465;-71
2022/05/17 11:03:33;;;;;;;20.77;17.97;;;18.70;99.90;;;;;;4957198;28;20464;-70
2022/05/17 11:06:24;;;;;;;21.87;17.57;;;18.60;99.90;;;;;;4950627;28;20475;-71
2022/05/17 11:09:01;;;;;;;23.57;18.20;;;18.60;99.90;;;;;;4956385;28;20956;-71
2022/05/17 11:12:01;;;;;;;21.13;19.13;;;18.70;99.90;;;;;;4955524;28;20604;-70
2022/05/17 11:14:34;;;;;;;19.60;17.77;;;18.70;99.90;;;;;;4955718;28;20468;-70
2022/05/17 11:17:08;;;;;;;21.77;19.57;;;18.70;99.90;;;;;;4956002;28;20543;-70
2022/05/17 11:19:40;;;;;;;18.83;16.50;;;18.70;99.90;;;;;;4955250;28;20468;-71
2022/05/17 11:22:13;;;;;;;19.47;17.47;;;18.70;99.90;;;;;;4956212;28;20479;-71
2022/05/17 11:25:12;;;;;;;19.90;17.80;;;18.60;99.90;;;;;;4956311;28;20487;-70
2022/05/17 11:27:57;;;;;;;18.83;16.80;;;18.60;99.90;;;;;;4950408;29;20519;-69
2022/05/17 11:30:28;;;;;;;20.00;17.90;;;18.80;99.90;;;;;;4955355;28;20460;-69
2022/05/17 11:33:11;;;;;;;20.93;18.73;;;18.80;99.90;;;;;;4955602;28;20467;-70
2022/05/17 11:35:47;;;;;;;18.13;16.43;;;19.00;99.90;;;;;;4955733;28;20484;-69
2022/05/17 11:38:19;;;;;;;18.33;16.43;;;19.10;99.90;;;;;;4955559;28;20543;-70
2022/05/17 11:40:56;;;;;;;17.33;15.53;;;19.30;99.90;;;;;;4955162;28;20456;-69
2022/05/17 11:43:48;;;;;;;16.20;14.70;;;19.40;99.90;;;;;;4955108;28;20496;-70
2022/05/17 11:46:41;;;;;;;16.07;14.60;;;19.70;99.90;;;;;;4955748;28;20481;-71
2022/05/17 11:49:41;;;;;;;16.73;15.23;;;19.70;99.90;;;;;;4955055;28;20539;-71
2022/05/17 11:52:34;;;;;;;16.60;15.10;;;19.90;99.90;;;;;;4955395;28;20472;-69
2022/05/17 11:55:05;;;;;;;15.53;14.20;;;20.20;99.90;;;;;;4941802;29;20448;-70
2022/05/17 11:58:03;;;;;;;13.90;12.90;;;20.40;99.90;;;;;;4954361;28;20984;-70
2022/05/17 12:00:42;;;;;;;14.93;13.60;;;20.60;99.90;;;;;;4954131;28;20461;-70
2022/05/17 12:03:34;;;;;;;14.43;13.23;;;20.70;99.90;;;;;;4954961;28;20832;-69
2022/05/17 12:06:01;;;;;;;14.90;13.80;;;20.90;99.90;;;;;;4954752;29;20642;-70
2022/05/17 12:08:32;;;;;;;13.50;12.50;;;21.10;99.90;;;;;;4960279;28;20456;-72
2022/05/17 12:11:08;;;;;;;13.30;12.23;;;21.20;99.90;;;;;;4968893;28;20507;-70
2022/05/17 12:13:42;;;;;;;12.20;11.20;;;21.30;99.90;;;;;;4967413;28;20495;-70
2022/05/17 12:16:15;;;;;;;11.23;10.17;;;21.40;99.90;;;;;;4966367;28;20511;-71
2022/05/17 12:18:45;;;;;;;10.00;9.10;;;21.40;99.90;;;;;;4958211;28;20476;-70
2022/05/17 12:21:42;;;;;;;9.20;8.50;;;21.40;99.90;;;;;;4955505;28;20539;-71
2022/05/17 12:24:21;;;;;;;9.93;9.23;;;21.30;99.90;;;;;;4948182;28;20559;-74
2022/05/17 12:26:56;;;;;;;8.63;8.03;;;21.20;99.90;;;;;;4948150;29;20483;-71
2022/05/17 12:32:11;;;;;;;10.30;9.37;;;21.10;99.90;;;;;;4955058;29;20547;-71
2022/05/17 12:34:38;;;;;;;10.10;9.23;;;20.90;99.90;;;;;;4955170;28;20997;-72
2022/05/17 12:37:10;;;;;;;9.10;8.50;;;20.70;99.90;;;;;;4954813;28;20847;-71
2022/05/17 12:45:13;;;;;;;12.57;11.50;;;20.50;99.90;;;;;;4954424;28;20456;-72
2022/05/17 12:47:44;;;;;;;11.57;10.77;;;20.60;99.90;;;;;;4954472;28;20986;-71
2022/05/17 12:50:16;;;;;;;11.07;10.30;;;20.60;99.90;;;;;;4953901;28;20632;-70
2022/05/17 12:52:44;;;;;;;9.90;8.97;;;20.70;99.90;;;;;;4954367;29;20990;-70
2022/05/17 12:55:17;;;;;;;11.60;10.70;;;20.80;99.90;;;;;;4954234;28;20539;-71
2022/05/17 12:57:44;;;;;;;11.00;10.10;;;20.70;99.90;;;;;;4953864;28;21075;-70
2022/05/17 13:00:15;;;;;;;10.27;9.57;;;20.70;99.90;;;;;;4953519;28;20807;-70
2022/05/17 13:02:44;;;;;;;9.13;8.50;;;20.50;99.90;;;;;;4954349;28;20465;-70
2022/05/17 13:05:25;;;;;;;8.47;7.97;;;20.40;99.90;;;;;;4953751;28;20523;-70
2022/05/17 13:08:00;;;;;;;7.43;6.83;;;20.30;99.90;;;;;;4953968;28;20547;-70
2022/05/17 13:10:27;;;;;;;7.87;7.40;;;20.40;99.90;;;;;;4953688;28;20468;-70
2022/05/17 13:12:54;;;;;;;5.67;5.43;;;20.50;99.90;;;;;;4953853;28;20465;-72
2022/05/17 13:15:22;;;;;;;5.90;5.60;;;20.50;99.90;;;;;;4953702;28;20493;-71
2022/05/17 13:17:56;;;;;;;7.23;6.60;;;20.60;99.90;;;;;;4954188;28;20939;-70
2022/05/17 13:20:25;;;;;;;6.53;6.07;;;20.70;99.90;;;;;;4953415;28;20527;-70
2022/05/17 13:22:54;;;;;;;6.73;6.33;;;20.80;99.90;;;;;;4954024;28;20512;-71
2022/05/17 13:25:23;;;;;;;6.80;6.40;;;21.00;99.90;;;;;;4953818;28;20853;-71
2022/05/17 13:27:52;;;;;;;6.97;6.57;;;21.10;99.90;;;;;;4953612;28;20818;-70
2022/05/17 13:30:30;;;;;;;6.57;6.07;;;21.10;99.90;;;;;;4952915;28;20892;-71
2022/05/17 13:32:58;;;;;;;6.73;6.23;;;21.10;99.90;;;;;;4954109;28;20479;-70
2022/05/17 13:35:28;;;;;;;5.60;5.30;;;21.10;99.90;;;;;;4953787;28;20555;-70
2022/05/17 13:37:57;;;;;;;5.53;5.33;;;20.90;99.90;;;;;;4954178;28;20612;-71
2022/05/17 13:40:43;;;;;;;6.47;6.00;;;20.80;99.90;;;;;;4953598;28;20535;-70
2022/05/17 13:43:33;;;;;;;6.20;5.90;;;20.70;99.90;;;;;;4952812;28;20523;-70
2022/05/17 13:46:13;;;;;;;6.07;5.67;;;20.70;99.90;;;;;;4953821;28;20496;-71
2022/05/17 13:48:51;;;;;;;5.20;4.90;;;20.70;99.90;;;;;;4955142;28;20519;-72
2022/05/17 13:51:21;;;;;;;6.53;6.13;;;20.70;99.90;;;;;;4953405;28;21036;-71
2022/05/17 13:53:52;;;;;;;7.03;6.53;;;20.70;99.90;;;;;;4948254;28;20472;-70
2022/05/17 13:56:24;;;;;;;5.87;5.63;;;20.80;99.90;;;;;;4952998;28;20567;-71
2022/05/17 13:58:50;;;;;;;5.83;5.50;;;20.90;99.90;;;;;;4952744;28;20476;-70
2022/05/17 14:01:28;;;;;;;5.43;5.23;;;20.70;99.90;;;;;;4953657;28;20460;-70
2022/05/17 14:04:13;;;;;;;6.60;6.20;;;20.80;99.90;;;;;;4953283;28;20539;-71
2022/05/17 14:06:48;;;;;;;6.47;6.10;;;21.00;99.90;;;;;;4952675;28;21004;-69
2022/05/17 14:12:08;;;;;;;6.50;6.10;;;21.20;99.90;;;;;;4953186;29;20429;-71
2022/05/17 14:14:35;;;;;;;5.87;5.57;;;21.20;99.90;;;;;;4952735;28;20471;-69
2022/05/17 14:17:06;;;;;;;5.70;5.40;;;21.10;99.90;;;;;;4952790;28;20504;-70
2022/05/17 14:19:35;;;;;;;6.73;6.43;;;21.10;99.90;;;;;;4952942;28;20556;-70
2022/05/17 14:22:04;;;;;;;5.47;5.17;;;21.30;99.90;;;;;;4952982;28;20472;-70
2022/05/17 14:24:31;;;;;;;5.70;5.40;;;21.40;99.90;;;;;;4949470;28;20517;-69
2022/05/17 14:26:59;;;;;;;6.10;5.80;;;21.40;99.90;;;;;;4952655;28;20480;-71
2022/05/17 14:29:30;;;;;;;5.33;5.13;;;21.20;99.90;;;;;;4951982;28;20464;-70
2022/05/17 14:31:58;;;;;;;5.67;5.37;;;21.30;99.90;;;;;;4952718;28;20465;-70
2022/05/17 14:34:27;;;;;;;5.10;4.90;;;21.30;99.90;;;;;;4953137;28;20468;-69
2022/05/17 14:36:54;;;;;;;5.03;4.80;;;21.40;99.90;;;;;;4952625;28;20488;-70
2022/05/17 14:39:23;;;;;;;5.23;4.93;;;21.50;99.90;;;;;;4952566;28;20519;-69
2022/05/17 14:41:53;;;;;;;5.23;5.03;;;21.50;99.90;;;;;;4951873;28;20504;-69
2022/05/17 14:44:21;;;;;;;5.17;4.93;;;21.30;99.90;;;;;;4951715;28;20608;-69
2022/05/17 14:46:49;;;;;;;5.90;5.53;;;21.10;99.90;;;;;;4952523;28;20492;-69
2022/05/17 14:49:19;;;;;;;5.33;5.10;;;21.00;99.90;;;;;;4952035;28;20846;-69
2022/05/17 14:51:47;;;;;;;5.03;4.83;;;21.30;99.90;;;;;;4951942;28;20469;-69
2022/05/17 14:54:14;;;;;;;4.97;4.77;;;21.50;99.90;;;;;;4952287;28;20546;-70
2022/05/17 14:56:41;;;;;;;6.03;5.73;;;21.60;99.90;;;;;;4952438;28;20912;-69
2022/05/17 14:59:09;;;;;;;6.13;5.73;;;21.80;99.90;;;;;;4951643;28;20484;-69
2022/05/17 15:01:41;;;;;;;5.40;5.10;;;21.50;99.90;;;;;;4951858;28;20823;-70
2022/05/17 15:04:08;;;;;;;6.10;5.90;;;21.40;99.90;;;;;;4952396;28;21033;-69
2022/05/17 15:06:48;;;;;;;6.53;6.07;;;21.40;99.90;;;;;;4952356;28;20563;-70
2022/05/17 15:09:18;;;;;;;6.27;5.87;;;21.60;99.90;;;;;;4953315;28;20846;-70
2022/05/17 15:11:45;;;;;;;6.50;6.10;;;21.70;99.90;;;;;;4952508;28;20464;-69
2022/05/17 15:14:11;;;;;;;6.47;5.97;;;21.60;99.90;;;;;;4950080;28;20484;-70
2022/05/17 15:16:40;;;;;;;6.10;5.70;;;21.40;99.90;;;;;;4952289;28;20488;-69
2022/05/17 15:19:07;;;;;;;6.67;6.23;;;21.40;99.90;;;;;;4952529;28;20492;-71
2022/05/17 15:21:33;;;;;;;5.83;5.53;;;21.70;99.90;;;;;;4952694;28;20476;-70
2022/05/17 15:24:00;;;;;;;7.23;6.67;;;21.80;99.90;;;;;;4952343;28;20468;-70
2022/05/17 15:26:28;;;;;;;6.27;5.97;;;21.90;99.90;;;;;;4952136;28;20484;-70
2022/05/17 15:28:56;;;;;;;5.97;5.47;;;22.10;99.90;;;;;;4951050;28;20524;-70
2022/05/17 15:31:25;;;;;;;6.47;6.07;;;22.10;99.90;;;;;;4951824;28;21174;-70
2022/05/17 15:33:52;;;;;;;6.83;6.43;;;22.10;99.90;;;;;;4951771;28;20487;-70
2022/05/17 15:36:18;;;;;;;6.13;5.70;;;22.20;99.90;;;;;;4952589;28;20526;-70
2022/05/17 15:38:45;;;;;;;7.27;6.77;;;22.20;99.90;;;;;;4952497;28;20492;-72
2022/05/17 15:41:12;;;;;;;7.70;7.20;;;22.10;99.90;;;;;;4955800;28;20464;-70
2022/05/17 15:43:40;;;;;;;6.87;6.37;;;22.00;99.90;;;;;;4954642;28;20468;-70
2022/05/17 15:46:19;;;;;;;6.13;5.87;;;21.90;99.90;;;;;;4955442;28;21036;-69
2022/05/17 15:54:18;;;;;;;6.00;5.50;;;21.80;99.90;;;;;;4950352;29;20515;-69
2022/05/17 15:56:45;;;;;;;5.97;5.57;;;21.90;99.90;;;;;;4954795;28;20484;-68
2022/05/17 15:59:14;;;;;;;5.87;5.47;;;21.90;99.90;;;;;;4954538;28;20579;-69
2022/05/17 16:01:46;;;;;;;5.63;5.37;;;21.80;99.90;;;;;;4954430;28;20464;-69
2022/05/17 16:08:01;;;;;;;7.10;6.50;;;21.90;99.90;;;;;;4955143;28;20997;-69
2022/05/17 16:09:47;;;;;;;6.63;6.23;;;21.90;99.90;;;;;;4954450;29;20460;-69
2022/05/17 16:12:13;;;;;;;6.83;6.43;;;21.90;99.90;;;;;;4954631;28;20559;-69
2022/05/17 16:14:42;;;;;;;6.83;6.43;;;21.80;99.90;;;;;;4954505;28;20520;-70
2022/05/17 16:17:10;;;;;;;6.50;6.10;;;21.90;99.90;;;;;;4977772;23;20839;-66
2022/05/17 16:19:41;;;;;;;5.57;5.20;;;21.90;99.90;;;;;;4954047;28;20518;-66
2022/05/17 16:22:09;;;;;;;6.43;5.87;;;21.80;99.90;;;;;;4954694;28;20467;-66
2022/05/17 16:24:38;;;;;;;6.10;5.60;;;21.70;99.90;;;;;;4954456;28;20840;-66
2022/05/17 16:27:06;;;;;;;6.20;5.67;;;21.50;99.90;;;;;;4954273;28;20512;-67
2022/05/17 16:29:33;;;;;;;6.00;5.70;;;21.60;99.90;;;;;;4953748;28;20515;-66
2022/05/17 16:32:02;;;;;;;5.40;5.10;;;21.50;99.90;;;;;;4954857;28;20460;-67
2022/05/17 16:34:31;;;;;;;6.10;5.60;;;21.40;99.90;;;;;;4954479;28;20819;-67
2022/05/17 16:36:58;;;;;;;6.53;5.77;;;21.40;99.90;;;;;;4954745;28;20500;-67
2022/05/17 16:39:25;;;;;;;5.67;5.10;;;21.40;99.90;;;;;;4954527;28;20524;-67
2022/05/17 16:41:55;;;;;;;4.90;4.67;;;21.30;99.90;;;;;;4953942;28;20460;-67
2022/05/17 16:44:22;;;;;;;5.33;5.03;;;21.30;99.90;;;;;;4950748;28;20619;-68
2022/05/17 16:46:50;;;;;;;4.50;4.27;;;21.30;99.90;;;;;;4953952;28;20515;-68
2022/05/17 16:49:21;;;;;;;5.50;5.10;;;21.30;99.90;;;;;;4954144;28;20464;-69
2022/05/17 16:51:49;;;;;;;5.00;4.73;;;21.30;99.90;;;;;;4953749;28;20472;-67
2022/05/17 16:54:18;;;;;;;5.10;4.77;;;21.30;99.90;;;;;;4953772;28;20491;-67
2022/05/17 16:56:45;;;;;;;4.90;4.60;;;21.20;99.90;;;;;;4953916;28;20489;-68
2022/05/17 16:59:12;;;;;;;5.37;5.13;;;21.20;99.90;;;;;;4952958;28;20603;-68
2022/05/17 17:01:41;;;;;;;4.43;4.23;;;21.20;99.90;;;;;;4953632;28;20464;-67
2022/05/17 17:04:08;;;;;;;6.03;5.73;;;21.10;99.90;;;;;;4954214;28;20472;-68
2022/05/17 17:06:37;;;;;;;5.53;5.33;;;21.10;99.90;;;;;;4954503;28;20496;-68
2022/05/17 17:09:05;;;;;;;5.43;5.13;;;21.10;99.90;;;;;;4956006;28;20465;-69
2022/05/17 17:11:32;;;;;;;5.47;5.27;;;21.00;99.90;;;;;;4955711;28;20477;-68
2022/05/17 17:13:59;;;;;;;4.90;4.80;;;21.00;99.90;;;;;;4952682;28;20500;-67
2022/05/17 17:16:26;;;;;;;5.20;4.87;;;20.70;99.90;;;;;;4953896;28;20575;-68
2022/05/17 17:18:55;;;;;;;4.97;4.70;;;20.70;99.90;;;;;;4953605;28;20932;-67
2022/05/17 17:21:23;;;;;;;5.30;5.10;;;20.60;99.90;;;;;;4953580;28;20520;-68
2022/05/17 17:23:52;;;;;;;5.30;5.10;;;20.60;99.90;;;;;;4953452;28;20547;-67
2022/05/17 17:26:19;;;;;;;4.33;4.13;;;20.50;99.90;;;;;;4953413;28;20489;-67